Noctor, Kentucky
Current Conditions -  °F | °C
As of 8:53 PM on Monday 24 Nov 2014 (Local Time) from KJKL Reporting Station
Clear Clear  
Wind Chill: 46°   Ceiling: Unl
Heat Index: 48°   Visibility: 10mi
Dew Point: 36°   Wind: 5mph
Humidity: 63%   Direction: NA
Pressure: 29.9"   Gusts: NA
Location:  37.532°N, 83.3068°W
Report Text: KJKL 250153Z AUTO VRB04KT 10SM CLR 09/02 A2990 RMK AO2 SLP122 T00890022
Loading
Personal Weather Stations






























Interactive Weather Map New forecast layout! Learn more

10-Day Weather Forecast

Advertisements
Track Severe Weather on mobile